sensor_id;sensor_type;location;lat;lon;timestamp;P1;durP1;ratioP1;P2;durP2;ratioP2
63018;SDS011;49105;46.046;10.760;2024-03-02T00:01:09;8.88;;;8.15;;
63018;SDS011;49105;46.046;10.760;2024-03-02T00:03:38;4.55;;;4.45;;
63018;SDS011;49105;46.046;10.760;2024-03-02T00:06:04;5.00;;;4.80;;
63018;SDS011;49105;46.046;10.760;2024-03-02T00:08:30;4.60;;;4.40;;
63018;SDS011;49105;46.046;10.760;2024-03-02T00:10:57;5.32;;;5.07;;
63018;SDS011;49105;46.046;10.760;2024-03-02T00:13:24;4.40;;;4.30;;
63018;SDS011;49105;46.046;10.760;2024-03-02T00:15:53;4.50;;;4.30;;
63018;SDS011;49105;46.046;10.760;2024-03-02T00:18:21;4.10;;;4.00;;
63018;SDS011;49105;46.046;10.760;2024-03-02T00:20:54;4.30;;;4.13;;
63018;SDS011;49105;46.046;10.760;2024-03-02T00:23:24;5.75;;;5.30;;
63018;SDS011;49105;46.046;10.760;2024-03-02T00:25:53;4.55;;;4.45;;
63018;SDS011;49105;46.046;10.760;2024-03-02T00:31:18;4.40;;;4.30;;
63018;SDS011;49105;46.046;10.760;2024-03-02T00:33:46;4.40;;;4.30;;
63018;SDS011;49105;46.046;10.760;2024-03-02T00:36:13;4.80;;;4.60;;
63018;SDS011;49105;46.046;10.760;2024-03-02T00:38:47;4.60;;;4.50;;
63018;SDS011;49105;46.046;10.760;2024-03-02T00:41:17;4.82;;;4.63;;
63018;SDS011;49105;46.046;10.760;2024-03-02T00:43:59;4.10;;;4.00;;
63018;SDS011;49105;46.046;10.760;2024-03-02T00:46:30;4.10;;;4.00;;
63018;SDS011;49105;46.046;10.760;2024-03-02T00:49:02;4.63;;;4.53;;
63018;SDS011;49105;46.046;10.760;2024-03-02T00:51:30;5.47;;;5.28;;
63018;SDS011;49105;46.046;10.760;2024-03-02T00:54:00;4.00;;;3.90;;
63018;SDS011;49105;46.046;10.760;2024-03-02T00:56:29;4.25;;;4.15;;
63018;SDS011;49105;46.046;10.760;2024-03-02T00:58:56;4.00;;;3.90;;
63018;SDS011;49105;46.046;10.760;2024-03-02T01:01:22;3.90;;;3.80;;
63018;SDS011;49105;46.046;10.760;2024-03-02T01:03:48;4.43;;;4.22;;
63018;SDS011;49105;46.046;10.760;2024-03-02T01:06:15;4.00;;;3.90;;
63018;SDS011;49105;46.046;10.760;2024-03-02T01:08:41;4.00;;;3.90;;
63018;SDS011;49105;46.046;10.760;2024-03-02T01:11:07;3.80;;;3.70;;
63018;SDS011;49105;46.046;10.760;2024-03-02T01:13:33;3.90;;;3.80;;
63018;SDS011;49105;46.046;10.760;2024-03-02T01:15:58;3.92;;;3.83;;
63018;SDS011;49105;46.046;10.760;2024-03-02T01:18:25;3.90;;;3.80;;
63018;SDS011;49105;46.046;10.760;2024-03-02T01:20:50;4.18;;;4.07;;
63018;SDS011;49105;46.046;10.760;2024-03-02T01:23:20;3.80;;;3.70;;
63018;SDS011;49105;46.046;10.760;2024-03-02T01:25:48;4.10;;;4.00;;
63018;SDS011;49105;46.046;10.760;2024-03-02T01:28:14;4.20;;;4.10;;
63018;SDS011;49105;46.046;10.760;2024-03-02T01:30:40;4.65;;;4.25;;
63018;SDS011;49105;46.046;10.760;2024-03-02T01:33:06;3.92;;;3.83;;
63018;SDS011;49105;46.046;10.760;2024-03-02T01:35:33;4.47;;;4.32;;
63018;SDS011;49105;46.046;10.760;2024-03-02T01:37:59;4.10;;;4.00;;
63018;SDS011;49105;46.046;10.760;2024-03-02T01:40:26;4.15;;;4.05;;
63018;SDS011;49105;46.046;10.760;2024-03-02T01:42:52;6.28;;;5.75;;
63018;SDS011;49105;46.046;10.760;2024-03-02T01:45:23;4.10;;;4.00;;
63018;SDS011;49105;46.046;10.760;2024-03-02T01:47:50;4.00;;;3.90;;
63018;SDS011;49105;46.046;10.760;2024-03-02T01:50:24;4.03;;;3.92;;
63018;SDS011;49105;46.046;10.760;2024-03-02T01:52:50;3.67;;;3.58;;
63018;SDS011;49105;46.046;10.760;2024-03-02T01:55:16;4.32;;;4.22;;
63018;SDS011;49105;46.046;10.760;2024-03-02T01:57:42;4.20;;;4.00;;
63018;SDS011;49105;46.046;10.760;2024-03-02T02:00:10;4.80;;;4.60;;
63018;SDS011;49105;46.046;10.760;2024-03-02T02:02:36;4.07;;;3.97;;
63018;SDS011;49105;46.046;10.760;2024-03-02T02:05:02;3.80;;;3.70;;
63018;SDS011;49105;46.046;10.760;2024-03-02T02:07:28;4.35;;;4.18;;
63018;SDS011;49105;46.046;10.760;2024-03-02T02:09:54;4.30;;;4.20;;
63018;SDS011;49105;46.046;10.760;2024-03-02T02:12:19;4.00;;;3.90;;
63018;SDS011;49105;46.046;10.760;2024-03-02T02:14:49;4.00;;;3.90;;
63018;SDS011;49105;46.046;10.760;2024-03-02T02:17:15;4.13;;;4.03;;
63018;SDS011;49105;46.046;10.760;2024-03-02T02:19:41;4.40;;;4.20;;
63018;SDS011;49105;46.046;10.760;2024-03-02T02:22:08;4.22;;;4.10;;
63018;SDS011;49105;46.046;10.760;2024-03-02T02:24:35;4.03;;;3.92;;
63018;SDS011;49105;46.046;10.760;2024-03-02T02:27:01;3.67;;;3.58;;
63018;SDS011;49105;46.046;10.760;2024-03-02T02:29:27;4.03;;;3.92;;
63018;SDS011;49105;46.046;10.760;2024-03-02T02:31:52;4.20;;;3.90;;
63018;SDS011;49105;46.046;10.760;2024-03-02T02:34:19;4.88;;;4.68;;
63018;SDS011;49105;46.046;10.760;2024-03-02T02:36:45;4.50;;;4.40;;
63018;SDS011;49105;46.046;10.760;2024-03-02T02:39:13;3.90;;;3.80;;
63018;SDS011;49105;46.046;10.760;2024-03-02T02:41:41;4.43;;;4.28;;
63018;SDS011;49105;46.046;10.760;2024-03-02T02:44:08;4.20;;;4.10;;
63018;SDS011;49105;46.046;10.760;2024-03-02T02:46:37;4.75;;;4.55;;
63018;SDS011;49105;46.046;10.760;2024-03-02T02:49:04;4.50;;;4.40;;
63018;SDS011;49105;46.046;10.760;2024-03-02T02:51:30;4.40;;;4.30;;
63018;SDS011;49105;46.046;10.760;2024-03-02T02:53:56;4.63;;;4.50;;
63018;SDS011;49105;46.046;10.760;2024-03-02T02:56:22;4.20;;;4.10;;
63018;SDS011;49105;46.046;10.760;2024-03-02T02:58:48;4.20;;;4.10;;
63018;SDS011;49105;46.046;10.760;2024-03-02T03:01:17;7.88;;;6.38;;
63018;SDS011;49105;46.046;10.760;2024-03-02T03:03:46;4.10;;;4.00;;
63018;SDS011;49105;46.046;10.760;2024-03-02T03:06:12;5.10;;;4.75;;
63018;SDS011;49105;46.046;10.760;2024-03-02T03:08:37;4.40;;;4.20;;
63018;SDS011;49105;46.046;10.760;2024-03-02T03:11:04;3.88;;;3.78;;
63018;SDS011;49105;46.046;10.760;2024-03-02T03:13:30;4.78;;;4.57;;
63018;SDS011;49105;46.046;10.760;2024-03-02T03:15:59;4.20;;;4.10;;
63018;SDS011;49105;46.046;10.760;2024-03-02T03:18:25;3.80;;;3.70;;
63018;SDS011;49105;46.046;10.760;2024-03-02T03:20:51;4.20;;;4.10;;
63018;SDS011;49105;46.046;10.760;2024-03-02T03:23:17;4.30;;;4.20;;
63018;SDS011;49105;46.046;10.760;2024-03-02T03:25:43;4.00;;;3.90;;
63018;SDS011;49105;46.046;10.760;2024-03-02T03:28:09;4.40;;;4.30;;
63018;SDS011;49105;46.046;10.760;2024-03-02T03:30:38;4.22;;;4.13;;
63018;SDS011;49105;46.046;10.760;2024-03-02T03:33:05;4.35;;;4.25;;
63018;SDS011;49105;46.046;10.760;2024-03-02T03:35:33;3.97;;;3.88;;
63018;SDS011;49105;46.046;10.760;2024-03-02T03:38:00;3.80;;;3.70;;
63018;SDS011;49105;46.046;10.760;2024-03-02T03:40:26;4.25;;;4.05;;
63018;SDS011;49105;46.046;10.760;2024-03-02T03:42:53;3.80;;;3.70;;
63018;SDS011;49105;46.046;10.760;2024-03-02T03:45:19;3.90;;;3.80;;
63018;SDS011;49105;46.046;10.760;2024-03-02T03:47:45;3.70;;;3.60;;
63018;SDS011;49105;46.046;10.760;2024-03-02T03:50:11;3.70;;;3.60;;
63018;SDS011;49105;46.046;10.760;2024-03-02T03:52:37;3.83;;;3.72;;
63018;SDS011;49105;46.046;10.760;2024-03-02T03:55:03;4.88;;;4.68;;
63018;SDS011;49105;46.046;10.760;2024-03-02T03:57:30;4.20;;;4.10;;
63018;SDS011;49105;46.046;10.760;2024-03-02T03:59:56;4.25;;;4.05;;
63018;SDS011;49105;46.046;10.760;2024-03-02T04:02:22;4.00;;;3.90;;
63018;SDS011;49105;46.046;10.760;2024-03-02T04:04:49;4.05;;;3.95;;
63018;SDS011;49105;46.046;10.760;2024-03-02T04:07:15;7.82;;;6.30;;
63018;SDS011;49105;46.046;10.760;2024-03-02T04:09:42;4.15;;;4.05;;
63018;SDS011;49105;46.046;10.760;2024-03-02T04:12:08;4.57;;;4.38;;
63018;SDS011;49105;46.046;10.760;2024-03-02T04:14:34;4.30;;;4.20;;
63018;SDS011;49105;46.046;10.760;2024-03-02T04:17:01;4.43;;;4.28;;
63018;SDS011;49105;46.046;10.760;2024-03-02T04:19:27;3.60;;;3.50;;
63018;SDS011;49105;46.046;10.760;2024-03-02T04:21:53;4.10;;;4.00;;
63018;SDS011;49105;46.046;10.760;2024-03-02T04:24:19;3.60;;;3.50;;
63018;SDS011;49105;46.046;10.760;2024-03-02T04:26:46;3.75;;;3.65;;
63018;SDS011;49105;46.046;10.760;2024-03-02T04:29:11;3.70;;;3.60;;
63018;SDS011;49105;46.046;10.760;2024-03-02T04:31:38;3.53;;;3.42;;
63018;SDS011;49105;46.046;10.760;2024-03-02T04:34:04;3.50;;;3.40;;
63018;SDS011;49105;46.046;10.760;2024-03-02T04:36:30;3.33;;;3.22;;
63018;SDS011;49105;46.046;10.760;2024-03-02T04:38:56;3.30;;;3.20;;
63018;SDS011;49105;46.046;10.760;2024-03-02T04:41:23;3.42;;;3.33;;
63018;SDS011;49105;46.046;10.760;2024-03-02T04:43:49;3.75;;;3.65;;
63018;SDS011;49105;46.046;10.760;2024-03-02T04:46:16;3.45;;;3.35;;
63018;SDS011;49105;46.046;10.760;2024-03-02T04:48:42;3.42;;;3.22;;
63018;SDS011;49105;46.046;10.760;2024-03-02T04:51:09;3.42;;;3.33;;
63018;SDS011;49105;46.046;10.760;2024-03-02T04:53:35;3.30;;;3.20;;
63018;SDS011;49105;46.046;10.760;2024-03-02T04:56:01;3.40;;;3.30;;
63018;SDS011;49105;46.046;10.760;2024-03-02T04:58:45;3.72;;;3.63;;
63018;SDS011;49105;46.046;10.760;2024-03-02T05:01:11;3.20;;;3.10;;
63018;SDS011;49105;46.046;10.760;2024-03-02T05:03:37;3.53;;;3.42;;
63018;SDS011;49105;46.046;10.760;2024-03-02T05:06:03;3.30;;;3.20;;
63018;SDS011;49105;46.046;10.760;2024-03-02T05:08:29;3.30;;;3.20;;
63018;SDS011;49105;46.046;10.760;2024-03-02T05:10:55;4.20;;;3.90;;
63018;SDS011;49105;46.046;10.760;2024-03-02T05:13:41;3.30;;;3.20;;
63018;SDS011;49105;46.046;10.760;2024-03-02T05:16:08;3.15;;;3.05;;
63018;SDS011;49105;46.046;10.760;2024-03-02T05:18:34;3.00;;;2.90;;
63018;SDS011;49105;46.046;10.760;2024-03-02T05:20:59;3.20;;;3.10;;
63018;SDS011;49105;46.046;10.760;2024-03-02T05:23:25;3.30;;;3.20;;
63018;SDS011;49105;46.046;10.760;2024-03-02T05:25:51;3.65;;;3.55;;
63018;SDS011;49105;46.046;10.760;2024-03-02T05:28:18;3.50;;;3.40;;
63018;SDS011;49105;46.046;10.760;2024-03-02T05:30:44;3.35;;;3.25;;
63018;SDS011;49105;46.046;10.760;2024-03-02T05:33:11;3.60;;;3.50;;
63018;SDS011;49105;46.046;10.760;2024-03-02T05:35:37;3.10;;;3.00;;
63018;SDS011;49105;46.046;10.760;2024-03-02T05:38:03;3.63;;;3.53;;
63018;SDS011;49105;46.046;10.760;2024-03-02T05:40:30;3.50;;;3.40;;
63018;SDS011;49105;46.046;10.760;2024-03-02T05:42:56;3.40;;;3.30;;
63018;SDS011;49105;46.046;10.760;2024-03-02T05:45:22;3.50;;;3.40;;
63018;SDS011;49105;46.046;10.760;2024-03-02T05:47:48;3.60;;;3.50;;
63018;SDS011;49105;46.046;10.760;2024-03-02T05:50:14;3.42;;;3.33;;
63018;SDS011;49105;46.046;10.760;2024-03-02T05:52:40;3.35;;;3.25;;
63018;SDS011;49105;46.046;10.760;2024-03-02T05:55:06;3.17;;;3.08;;
63018;SDS011;49105;46.046;10.760;2024-03-02T05:57:32;4.47;;;4.30;;
63018;SDS011;49105;46.046;10.760;2024-03-02T06:00:09;4.15;;;4.05;;
63018;SDS011;49105;46.046;10.760;2024-03-02T06:02:39;4.30;;;4.10;;
63018;SDS011;49105;46.046;10.760;2024-03-02T06:05:05;4.18;;;3.97;;
63018;SDS011;49105;46.046;10.760;2024-03-02T06:07:32;4.05;;;3.83;;
63018;SDS011;49105;46.046;10.760;2024-03-02T06:09:58;3.42;;;3.33;;
63018;SDS011;49105;46.046;10.760;2024-03-02T06:12:24;3.30;;;3.20;;
63018;SDS011;49105;46.046;10.760;2024-03-02T06:14:50;4.45;;;4.25;;
63018;SDS011;49105;46.046;10.760;2024-03-02T06:17:17;4.07;;;3.88;;
63018;SDS011;49105;46.046;10.760;2024-03-02T06:19:43;3.20;;;3.10;;
63018;SDS011;49105;46.046;10.760;2024-03-02T06:22:10;4.13;;;3.83;;
63018;SDS011;49105;46.046;10.760;2024-03-02T06:24:36;3.50;;;3.40;;
63018;SDS011;49105;46.046;10.760;2024-03-02T06:27:02;3.20;;;3.10;;
63018;SDS011;49105;46.046;10.760;2024-03-02T06:29:28;4.40;;;4.30;;
63018;SDS011;49105;46.046;10.760;2024-03-02T06:31:54;3.50;;;3.40;;
63018;SDS011;49105;46.046;10.760;2024-03-02T06:34:20;4.45;;;4.25;;
63018;SDS011;49105;46.046;10.760;2024-03-02T06:36:46;4.10;;;4.00;;
63018;SDS011;49105;46.046;10.760;2024-03-02T06:39:12;3.50;;;3.40;;
63018;SDS011;49105;46.046;10.760;2024-03-02T06:41:38;5.50;;;5.28;;
63018;SDS011;49105;46.046;10.760;2024-03-02T06:44:04;5.10;;;4.65;;
63018;SDS011;49105;46.046;10.760;2024-03-02T06:46:31;3.58;;;3.47;;
63018;SDS011;49105;46.046;10.760;2024-03-02T06:48:57;4.32;;;4.13;;
63018;SDS011;49105;46.046;10.760;2024-03-02T06:51:23;3.80;;;3.70;;
63018;SDS011;49105;46.046;10.760;2024-03-02T06:53:50;3.97;;;3.88;;
63018;SDS011;49105;46.046;10.760;2024-03-02T06:56:16;3.80;;;3.60;;
63018;SDS011;49105;46.046;10.760;2024-03-02T06:58:42;4.47;;;4.18;;
63018;SDS011;49105;46.046;10.760;2024-03-02T07:01:08;3.80;;;3.60;;
63018;SDS011;49105;46.046;10.760;2024-03-02T07:03:34;3.50;;;3.40;;
63018;SDS011;49105;46.046;10.760;2024-03-02T07:06:00;3.10;;;3.00;;
63018;SDS011;49105;46.046;10.760;2024-03-02T07:08:27;4.15;;;3.95;;
63018;SDS011;49105;46.046;10.760;2024-03-02T07:10:53;3.30;;;3.20;;
63018;SDS011;49105;46.046;10.760;2024-03-02T07:13:19;3.50;;;3.40;;
63018;SDS011;49105;46.046;10.760;2024-03-02T07:15:45;5.00;;;4.53;;
63018;SDS011;49105;46.046;10.760;2024-03-02T07:18:30;4.20;;;4.10;;
63018;SDS011;49105;46.046;10.760;2024-03-02T07:20:56;3.72;;;3.63;;
63018;SDS011;49105;46.046;10.760;2024-03-02T07:23:26;3.65;;;3.55;;
63018;SDS011;49105;46.046;10.760;2024-03-02T07:25:55;3.35;;;3.25;;
63018;SDS011;49105;46.046;10.760;2024-03-02T07:28:24;3.42;;;3.33;;
63018;SDS011;49105;46.046;10.760;2024-03-02T07:33:26;3.70;;;3.60;;
63018;SDS011;49105;46.046;10.760;2024-03-02T07:35:52;3.00;;;2.90;;
63018;SDS011;49105;46.046;10.760;2024-03-02T07:38:19;3.22;;;3.13;;
63018;SDS011;49105;46.046;10.760;2024-03-02T07:40:45;3.60;;;3.50;;
63018;SDS011;49105;46.046;10.760;2024-03-02T07:43:11;3.10;;;3.00;;
63018;SDS011;49105;46.046;10.760;2024-03-02T07:45:38;3.50;;;3.40;;
63018;SDS011;49105;46.046;10.760;2024-03-02T07:48:04;3.58;;;3.47;;
63018;SDS011;49105;46.046;10.760;2024-03-02T07:50:30;7.70;;;3.53;;
63018;SDS011;49105;46.046;10.760;2024-03-02T07:52:56;4.45;;;4.15;;
63018;SDS011;49105;46.046;10.760;2024-03-02T07:55:22;3.72;;;3.40;;
63018;SDS011;49105;46.046;10.760;2024-03-02T07:57:50;3.92;;;3.72;;
63018;SDS011;49105;46.046;10.760;2024-03-02T08:00:16;3.20;;;3.10;;
63018;SDS011;49105;46.046;10.760;2024-03-02T08:02:42;3.00;;;2.90;;
63018;SDS011;49105;46.046;10.760;2024-03-02T08:05:08;3.83;;;3.72;;
63018;SDS011;49105;46.046;10.760;2024-03-02T08:07:34;3.03;;;2.92;;
63018;SDS011;49105;46.046;10.760;2024-03-02T08:10:00;3.15;;;2.95;;
63018;SDS011;49105;46.046;10.760;2024-03-02T08:12:26;3.88;;;3.67;;
63018;SDS011;49105;46.046;10.760;2024-03-02T08:14:53;3.08;;;2.83;;
63018;SDS011;49105;46.046;10.760;2024-03-02T08:17:21;2.70;;;2.60;;
63018;SDS011;49105;46.046;10.760;2024-03-02T08:19:47;2.90;;;2.80;;
63018;SDS011;49105;46.046;10.760;2024-03-02T08:22:14;2.60;;;2.60;;
63018;SDS011;49105;46.046;10.760;2024-03-02T08:24:40;3.75;;;3.65;;
63018;SDS011;49105;46.046;10.760;2024-03-02T08:27:06;2.67;;;2.60;;
63018;SDS011;49105;46.046;10.760;2024-03-02T08:29:32;3.38;;;3.28;;
63018;SDS011;49105;46.046;10.760;2024-03-02T08:31:58;3.72;;;3.53;;
63018;SDS011;49105;46.046;10.760;2024-03-02T08:34:24;2.40;;;2.40;;
63018;SDS011;49105;46.046;10.760;2024-03-02T08:36:50;2.80;;;2.70;;
63018;SDS011;49105;46.046;10.760;2024-03-02T08:39:16;3.58;;;3.40;;
63018;SDS011;49105;46.046;10.760;2024-03-02T08:41:46;3.03;;;2.92;;
63018;SDS011;49105;46.046;10.760;2024-03-02T08:44:13;2.90;;;2.80;;
63018;SDS011;49105;46.046;10.760;2024-03-02T08:46:39;3.10;;;3.00;;
63018;SDS011;49105;46.046;10.760;2024-03-02T08:49:05;2.80;;;2.70;;
63018;SDS011;49105;46.046;10.760;2024-03-02T08:51:32;2.90;;;2.80;;
63018;SDS011;49105;46.046;10.760;2024-03-02T08:53:57;3.33;;;3.13;;
63018;SDS011;49105;46.046;10.760;2024-03-02T08:56:24;2.97;;;2.88;;
63018;SDS011;49105;46.046;10.760;2024-03-02T08:58:50;3.00;;;2.90;;
63018;SDS011;49105;46.046;10.760;2024-03-02T09:01:16;7.72;;;6.85;;
63018;SDS011;49105;46.046;10.760;2024-03-02T09:03:43;3.08;;;2.95;;
63018;SDS011;49105;46.046;10.760;2024-03-02T09:06:10;5.65;;;3.72;;
63018;SDS011;49105;46.046;10.760;2024-03-02T09:08:36;3.25;;;3.15;;
63018;SDS011;49105;46.046;10.760;2024-03-02T09:11:03;3.75;;;3.55;;
63018;SDS011;49105;46.046;10.760;2024-03-02T09:13:29;2.97;;;2.88;;
63018;SDS011;49105;46.046;10.760;2024-03-02T09:15:56;3.13;;;3.03;;
63018;SDS011;49105;46.046;10.760;2024-03-02T09:18:22;3.90;;;3.78;;
63018;SDS011;49105;46.046;10.760;2024-03-02T09:20:48;4.32;;;4.03;;
63018;SDS011;49105;46.046;10.760;2024-03-02T09:23:14;2.78;;;2.67;;
63018;SDS011;49105;46.046;10.760;2024-03-02T09:25:39;4.05;;;3.80;;
63018;SDS011;49105;46.046;10.760;2024-03-02T09:28:05;3.88;;;3.63;;
63018;SDS011;49105;46.046;10.760;2024-03-02T09:30:32;3.25;;;3.15;;
63018;SDS011;49105;46.046;10.760;2024-03-02T09:32:58;4.15;;;3.95;;
63018;SDS011;49105;46.046;10.760;2024-03-02T09:35:24;2.70;;;2.60;;
63018;SDS011;49105;46.046;10.760;2024-03-02T09:37:50;3.33;;;3.22;;
63018;SDS011;49105;46.046;10.760;2024-03-02T09:40:16;3.50;;;3.33;;
63018;SDS011;49105;46.046;10.760;2024-03-02T09:42:42;3.42;;;3.33;;
63018;SDS011;49105;46.046;10.760;2024-03-02T09:45:10;3.35;;;3.25;;
63018;SDS011;49105;46.046;10.760;2024-03-02T09:47:36;4.63;;;4.32;;
63018;SDS011;49105;46.046;10.760;2024-03-02T09:50:03;3.28;;;3.17;;
63018;SDS011;49105;46.046;10.760;2024-03-02T09:52:29;3.67;;;3.58;;
63018;SDS011;49105;46.046;10.760;2024-03-02T09:54:56;3.85;;;3.65;;
63018;SDS011;49105;46.046;10.760;2024-03-02T09:57:22;3.42;;;3.33;;
63018;SDS011;49105;46.046;10.760;2024-03-02T09:59:48;3.42;;;3.33;;
63018;SDS011;49105;46.046;10.760;2024-03-02T10:02:14;3.97;;;3.78;;
63018;SDS011;49105;46.046;10.760;2024-03-02T10:04:40;3.35;;;3.25;;
63018;SDS011;49105;46.046;10.760;2024-03-02T10:09:34;3.08;;;2.97;;
63018;SDS011;49105;46.046;10.760;2024-03-02T10:12:04;2.85;;;2.75;;
63018;SDS011;49105;46.046;10.760;2024-03-02T10:14:31;2.92;;;2.83;;
63018;SDS011;49105;46.046;10.760;2024-03-02T10:17:04;2.83;;;2.72;;
63018;SDS011;49105;46.046;10.760;2024-03-02T10:19:31;3.13;;;3.03;;
63018;SDS011;49105;46.046;10.760;2024-03-02T10:21:58;3.47;;;3.38;;
63018;SDS011;49105;46.046;10.760;2024-03-02T10:24:25;3.35;;;3.25;;
63018;SDS011;49105;46.046;10.760;2024-03-02T10:26:51;3.33;;;3.17;;
63018;SDS011;49105;46.046;10.760;2024-03-02T10:29:18;4.97;;;4.63;;
63018;SDS011;49105;46.046;10.760;2024-03-02T10:31:44;3.50;;;3.40;;
63018;SDS011;49105;46.046;10.760;2024-03-02T10:34:12;3.53;;;3.42;;
63018;SDS011;49105;46.046;10.760;2024-03-02T10:36:42;3.83;;;3.63;;
63018;SDS011;49105;46.046;10.760;2024-03-02T10:39:10;4.72;;;4.40;;
63018;SDS011;49105;46.046;10.760;2024-03-02T10:41:39;3.45;;;3.35;;
63018;SDS011;49105;46.046;10.760;2024-03-02T10:44:06;3.08;;;2.97;;
63018;SDS011;49105;46.046;10.760;2024-03-02T10:46:34;4.25;;;4.05;;
63018;SDS011;49105;46.046;10.760;2024-03-02T10:49:01;3.75;;;3.55;;
63018;SDS011;49105;46.046;10.760;2024-03-02T10:51:29;5.28;;;4.78;;
63018;SDS011;49105;46.046;10.760;2024-03-02T10:53:59;3.28;;;3.17;;
63018;SDS011;49105;46.046;10.760;2024-03-02T10:56:41;4.32;;;4.07;;
63018;SDS011;49105;46.046;10.760;2024-03-02T11:02:00;2.78;;;2.67;;
63018;SDS011;49105;46.046;10.760;2024-03-02T11:04:28;2.90;;;2.80;;
63018;SDS011;49105;46.046;10.760;2024-03-02T11:07:07;3.40;;;3.30;;
63018;SDS011;49105;46.046;10.760;2024-03-02T11:09:37;3.25;;;3.15;;
63018;SDS011;49105;46.046;10.760;2024-03-02T11:12:15;3.10;;;3.00;;
63018;SDS011;49105;46.046;10.760;2024-03-02T11:17:17;2.80;;;2.70;;
63018;SDS011;49105;46.046;10.760;2024-03-02T11:19:44;2.85;;;2.75;;
63018;SDS011;49105;46.046;10.760;2024-03-02T11:22:11;2.97;;;2.88;;
63018;SDS011;49105;46.046;10.760;2024-03-02T11:24:38;3.17;;;2.97;;
63018;SDS011;49105;46.046;10.760;2024-03-02T11:27:05;2.65;;;2.55;;
63018;SDS011;49105;46.046;10.760;2024-03-02T11:32:01;2.10;;;2.08;;
63018;SDS011;49105;46.046;10.760;2024-03-02T11:34:39;3.00;;;2.90;;
63018;SDS011;49105;46.046;10.760;2024-03-02T11:37:10;2.78;;;2.67;;
63018;SDS011;49105;46.046;10.760;2024-03-02T11:39:37;2.88;;;2.63;;
63018;SDS011;49105;46.046;10.760;2024-03-02T11:42:04;1.95;;;1.95;;
63018;SDS011;49105;46.046;10.760;2024-03-02T11:44:35;2.25;;;2.25;;
63018;SDS011;49105;46.046;10.760;2024-03-02T11:47:03;2.40;;;2.33;;
63018;SDS011;49105;46.046;10.760;2024-03-02T11:49:38;2.13;;;2.08;;
63018;SDS011;49105;46.046;10.760;2024-03-02T11:52:08;2.10;;;2.10;;
63018;SDS011;49105;46.046;10.760;2024-03-02T11:54:39;1.70;;;1.70;;
63018;SDS011;49105;46.046;10.760;2024-03-02T11:57:11;2.17;;;2.17;;
63018;SDS011;49105;46.046;10.760;2024-03-02T11:59:38;1.83;;;1.83;;
63018;SDS011;49105;46.046;10.760;2024-03-02T12:02:04;1.85;;;1.85;;
63018;SDS011;49105;46.046;10.760;2024-03-02T12:04:31;5.07;;;2.85;;
63018;SDS011;49105;46.046;10.760;2024-03-02T12:06:57;1.95;;;1.95;;
63018;SDS011;49105;46.046;10.760;2024-03-02T12:09:27;1.90;;;1.90;;
63018;SDS011;49105;46.046;10.760;2024-03-02T12:12:04;2.38;;;2.15;;
63018;SDS011;49105;46.046;10.760;2024-03-02T12:14:35;1.88;;;1.88;;
63018;SDS011;49105;46.046;10.760;2024-03-02T12:17:03;2.72;;;2.63;;
63018;SDS011;49105;46.046;10.760;2024-03-02T12:19:32;2.10;;;2.10;;
63018;SDS011;49105;46.046;10.760;2024-03-02T12:21:58;2.67;;;2.58;;
63018;SDS011;49105;46.046;10.760;2024-03-02T12:24:30;2.00;;;2.00;;
63018;SDS011;49105;46.046;10.760;2024-03-02T12:26:56;2.15;;;2.15;;
63018;SDS011;49105;46.046;10.760;2024-03-02T12:29:22;2.33;;;2.33;;
63018;SDS011;49105;46.046;10.760;2024-03-02T12:31:49;2.30;;;2.30;;
63018;SDS011;49105;46.046;10.760;2024-03-02T12:34:18;2.10;;;2.10;;
63018;SDS011;49105;46.046;10.760;2024-03-02T12:36:45;3.78;;;3.55;;
63018;SDS011;49105;46.046;10.760;2024-03-02T12:39:17;3.15;;;2.95;;
63018;SDS011;49105;46.046;10.760;2024-03-02T12:41:48;2.80;;;2.70;;
63018;SDS011;49105;46.046;10.760;2024-03-02T12:44:15;3.00;;;2.72;;
63018;SDS011;49105;46.046;10.760;2024-03-02T12:46:41;2.50;;;2.50;;
63018;SDS011;49105;46.046;10.760;2024-03-02T12:49:09;2.47;;;2.38;;
63018;SDS011;49105;46.046;10.760;2024-03-02T12:51:37;2.30;;;2.30;;
63018;SDS011;49105;46.046;10.760;2024-03-02T12:54:09;2.22;;;2.13;;
63018;SDS011;49105;46.046;10.760;2024-03-02T12:56:36;2.35;;;2.25;;
63018;SDS011;49105;46.046;10.760;2024-03-02T12:59:02;2.20;;;2.15;;
63018;SDS011;49105;46.046;10.760;2024-03-02T13:01:29;2.10;;;2.10;;
63018;SDS011;49105;46.046;10.760;2024-03-02T13:03:56;2.08;;;2.08;;
63018;SDS011;49105;46.046;10.760;2024-03-02T13:06:24;1.80;;;1.80;;
63018;SDS011;49105;46.046;10.760;2024-03-02T13:08:53;2.00;;;2.00;;
63018;SDS011;49105;46.046;10.760;2024-03-02T13:11:19;1.88;;;1.88;;
63018;SDS011;49105;46.046;10.760;2024-03-02T13:13:47;1.75;;;1.75;;
63018;SDS011;49105;46.046;10.760;2024-03-02T13:16:13;1.90;;;1.90;;
63018;SDS011;49105;46.046;10.760;2024-03-02T13:18:41;1.90;;;1.90;;
63018;SDS011;49105;46.046;10.760;2024-03-02T13:21:07;2.00;;;2.00;;
63018;SDS011;49105;46.046;10.760;2024-03-02T13:23:34;2.45;;;2.35;;
63018;SDS011;49105;46.046;10.760;2024-03-02T13:26:00;2.33;;;2.22;;
63018;SDS011;49105;46.046;10.760;2024-03-02T13:28:26;2.65;;;2.55;;
63018;SDS011;49105;46.046;10.760;2024-03-02T13:30:52;1.80;;;1.80;;
63018;SDS011;49105;46.046;10.760;2024-03-02T13:33:18;1.80;;;1.80;;
63018;SDS011;49105;46.046;10.760;2024-03-02T13:35:53;1.90;;;1.90;;
63018;SDS011;49105;46.046;10.760;2024-03-02T13:38:19;1.67;;;1.67;;
63018;SDS011;49105;46.046;10.760;2024-03-02T13:40:45;1.85;;;1.85;;
63018;SDS011;49105;46.046;10.760;2024-03-02T13:43:17;2.15;;;2.15;;
63018;SDS011;49105;46.046;10.760;2024-03-02T13:45:44;2.42;;;2.33;;
63018;SDS011;49105;46.046;10.760;2024-03-02T13:48:09;1.75;;;1.75;;
63018;SDS011;49105;46.046;10.760;2024-03-02T13:50:35;1.55;;;1.55;;
63018;SDS011;49105;46.046;10.760;2024-03-02T13:53:01;1.60;;;1.60;;
63018;SDS011;49105;46.046;10.760;2024-03-02T13:55:28;1.65;;;1.65;;
63018;SDS011;49105;46.046;10.760;2024-03-02T13:57:53;2.25;;;2.17;;
63018;SDS011;49105;46.046;10.760;2024-03-02T14:00:19;1.75;;;1.75;;
63018;SDS011;49105;46.046;10.760;2024-03-02T14:02:45;1.70;;;1.70;;
63018;SDS011;49105;46.046;10.760;2024-03-02T14:05:11;1.63;;;1.63;;
63018;SDS011;49105;46.046;10.760;2024-03-02T14:07:38;2.35;;;2.30;;
63018;SDS011;49105;46.046;10.760;2024-03-02T14:10:05;1.80;;;1.80;;
63018;SDS011;49105;46.046;10.760;2024-03-02T14:12:31;1.70;;;1.70;;
63018;SDS011;49105;46.046;10.760;2024-03-02T14:14:57;2.10;;;2.10;;
63018;SDS011;49105;46.046;10.760;2024-03-02T14:17:24;1.80;;;1.80;;
63018;SDS011;49105;46.046;10.760;2024-03-02T14:19:50;2.13;;;2.13;;
63018;SDS011;49105;46.046;10.760;2024-03-02T14:22:18;2.13;;;2.13;;
63018;SDS011;49105;46.046;10.760;2024-03-02T14:24:44;1.83;;;1.83;;
63018;SDS011;49105;46.046;10.760;2024-03-02T14:27:09;1.88;;;1.88;;
63018;SDS011;49105;46.046;10.760;2024-03-02T14:29:35;2.20;;;2.20;;
63018;SDS011;49105;46.046;10.760;2024-03-02T14:32:03;2.20;;;2.20;;
63018;SDS011;49105;46.046;10.760;2024-03-02T14:34:29;1.92;;;1.92;;
63018;SDS011;49105;46.046;10.760;2024-03-02T14:36:55;2.03;;;2.03;;
63018;SDS011;49105;46.046;10.760;2024-03-02T14:39:21;1.90;;;1.90;;
63018;SDS011;49105;46.046;10.760;2024-03-02T14:41:47;2.00;;;2.00;;
63018;SDS011;49105;46.046;10.760;2024-03-02T14:44:13;1.73;;;1.73;;
63018;SDS011;49105;46.046;10.760;2024-03-02T14:46:40;2.00;;;2.00;;
63018;SDS011;49105;46.046;10.760;2024-03-02T14:49:06;1.90;;;1.90;;